sensor_id;sensor_type;location;lat;lon;timestamp;pressure;altitude;pressure_sealevel;temperature;humidity
38688;BME280;24444;53.216;-6.664;2022-08-03T00:01:06;99785.71;;;12.09;95.31
38688;BME280;24444;53.216;-6.664;2022-08-03T00:03:33;99786.74;;;11.67;94.74
38688;BME280;24444;53.216;-6.664;2022-08-03T00:06:01;99782.15;;;10.91;97.48
38688;BME280;24444;53.216;-6.664;2022-08-03T00:08:29;99776.99;;;11.76;97.22
38688;BME280;24444;53.216;-6.664;2022-08-03T00:10:55;99783.24;;;11.16;98.74
38688;BME280;24444;53.216;-6.664;2022-08-03T00:13:23;99774.09;;;11.03;99.96
38688;BME280;24444;53.216;-6.664;2022-08-03T00:15:51;99760.07;;;11.13;100.00
38688;BME280;24444;53.216;-6.664;2022-08-03T00:18:19;99760.46;;;11.43;98.73
38688;BME280;24444;53.216;-6.664;2022-08-03T00:20:46;99763.81;;;11.28;99.48
38688;BME280;24444;53.216;-6.664;2022-08-03T00:23:14;99765.61;;;11.13;98.21
38688;BME280;24444;53.216;-6.664;2022-08-03T00:25:41;99768.06;;;11.26;97.86
38688;BME280;24444;53.216;-6.664;2022-08-03T00:28:09;99770.01;;;11.52;99.91
38688;BME280;24444;53.216;-6.664;2022-08-03T00:30:36;99768.80;;;11.54;98.85
38688;BME280;24444;53.216;-6.664;2022-08-03T00:33:04;99767.53;;;11.23;99.72
38688;BME280;24444;53.216;-6.664;2022-08-03T00:35:31;99767.22;;;11.03;99.32
38688;BME280;24444;53.216;-6.664;2022-08-03T00:37:58;99765.71;;;11.26;98.68
38688;BME280;24444;53.216;-6.664;2022-08-03T00:40:26;99767.61;;;11.14;97.91
38688;BME280;24444;53.216;-6.664;2022-08-03T00:42:56;99764.24;;;11.13;100.00
38688;BME280;24444;53.216;-6.664;2022-08-03T00:45:26;99764.45;;;10.67;100.00
38688;BME280;24444;53.216;-6.664;2022-08-03T00:47:54;99768.71;;;11.20;99.98
38688;BME280;24444;53.216;-6.664;2022-08-03T00:50:24;99766.83;;;11.29;100.00
38688;BME280;24444;53.216;-6.664;2022-08-03T00:52:53;99766.04;;;12.01;99.38
38688;BME280;24444;53.216;-6.664;2022-08-03T00:55:21;99758.33;;;11.46;99.71
38688;BME280;24444;53.216;-6.664;2022-08-03T00:57:49;99758.98;;;11.71;99.05
38688;BME280;24444;53.216;-6.664;2022-08-03T01:00:18;99763.96;;;11.61;98.78
38688;BME280;24444;53.216;-6.664;2022-08-03T01:02:46;99757.50;;;11.07;99.19
38688;BME280;24444;53.216;-6.664;2022-08-03T01:05:14;99755.42;;;11.20;98.29
38688;BME280;24444;53.216;-6.664;2022-08-03T01:07:50;99757.58;;;11.02;99.29
38688;BME280;24444;53.216;-6.664;2022-08-03T01:10:31;99755.59;;;11.77;99.23
38688;BME280;24444;53.216;-6.664;2022-08-03T01:13:14;99756.15;;;11.75;97.64
38688;BME280;24444;53.216;-6.664;2022-08-03T01:15:49;99751.43;;;11.38;98.91
38688;BME280;24444;53.216;-6.664;2022-08-03T01:18:25;99751.03;;;11.60;99.52
38688;BME280;24444;53.216;-6.664;2022-08-03T01:20:56;99746.38;;;11.44;98.34
38688;BME280;24444;53.216;-6.664;2022-08-03T01:23:36;99742.36;;;11.79;97.32
38688;BME280;24444;53.216;-6.664;2022-08-03T01:26:29;99745.04;;;11.11;98.30
38688;BME280;24444;53.216;-6.664;2022-08-03T01:29:14;99743.55;;;11.62;99.94
38688;BME280;24444;53.216;-6.664;2022-08-03T01:31:51;99744.78;;;12.11;99.26
38688;BME280;24444;53.216;-6.664;2022-08-03T01:34:20;99741.90;;;11.78;98.08
38688;BME280;24444;53.216;-6.664;2022-08-03T01:36:52;99741.82;;;10.95;99.15
38688;BME280;24444;53.216;-6.664;2022-08-03T01:39:23;99739.06;;;11.01;99.60
38688;BME280;24444;53.216;-6.664;2022-08-03T01:41:56;99737.12;;;11.37;97.14
38688;BME280;24444;53.216;-6.664;2022-08-03T01:44:25;99740.58;;;11.60;97.53
38688;BME280;24444;53.216;-6.664;2022-08-03T01:46:57;99737.80;;;11.92;96.33
38688;BME280;24444;53.216;-6.664;2022-08-03T01:49:26;99742.30;;;12.13;96.49
38688;BME280;24444;53.216;-6.664;2022-08-03T01:51:55;99738.39;;;11.74;97.51
38688;BME280;24444;53.216;-6.664;2022-08-03T01:54:25;99736.57;;;11.37;99.57
38688;BME280;24444;53.216;-6.664;2022-08-03T01:56:55;99743.62;;;11.24;98.81
38688;BME280;24444;53.216;-6.664;2022-08-03T01:59:24;99746.88;;;11.35;97.55
38688;BME280;24444;53.216;-6.664;2022-08-03T02:01:53;99745.84;;;10.88;100.00
38688;BME280;24444;53.216;-6.664;2022-08-03T02:04:21;99748.59;;;11.18;99.61
38688;BME280;24444;53.216;-6.664;2022-08-03T02:06:51;99746.02;;;11.81;99.24
38688;BME280;24444;53.216;-6.664;2022-08-03T02:09:21;99749.94;;;11.67;99.05
38688;BME280;24444;53.216;-6.664;2022-08-03T02:11:50;99753.20;;;11.49;98.14
38688;BME280;24444;53.216;-6.664;2022-08-03T02:14:19;99751.27;;;11.61;99.90
38688;BME280;24444;53.216;-6.664;2022-08-03T02:16:49;99757.77;;;11.42;98.10
38688;BME280;24444;53.216;-6.664;2022-08-03T02:19:18;99761.26;;;11.50;97.77
38688;BME280;24444;53.216;-6.664;2022-08-03T02:21:47;99766.98;;;11.73;97.45
38688;BME280;24444;53.216;-6.664;2022-08-03T02:24:17;99767.82;;;11.90;97.58
38688;BME280;24444;53.216;-6.664;2022-08-03T02:26:46;99766.05;;;11.83;96.57
38688;BME280;24444;53.216;-6.664;2022-08-03T02:29:20;99765.87;;;11.17;98.01
38688;BME280;24444;53.216;-6.664;2022-08-03T02:31:49;99771.08;;;11.45;98.35
38688;BME280;24444;53.216;-6.664;2022-08-03T02:34:20;99768.62;;;11.14;100.00
38688;BME280;24444;53.216;-6.664;2022-08-03T02:36:51;99768.22;;;11.21;100.00
38688;BME280;24444;53.216;-6.664;2022-08-03T02:39:21;99772.17;;;11.20;100.00
38688;BME280;24444;53.216;-6.664;2022-08-03T02:41:53;99778.92;;;11.35;100.00
38688;BME280;24444;53.216;-6.664;2022-08-03T02:44:24;99779.26;;;11.32;100.00
38688;BME280;24444;53.216;-6.664;2022-08-03T02:46:55;99777.40;;;11.08;100.00
38688;BME280;24444;53.216;-6.664;2022-08-03T02:49:24;99775.58;;;10.68;100.00
38688;BME280;24444;53.216;-6.664;2022-08-03T02:51:54;99771.80;;;11.13;100.00
38688;BME280;24444;53.216;-6.664;2022-08-03T02:54:23;99772.24;;;10.45;100.00
38688;BME280;24444;53.216;-6.664;2022-08-03T02:56:53;99765.80;;;10.59;100.00
38688;BME280;24444;53.216;-6.664;2022-08-03T02:59:24;99761.96;;;10.84;100.00
38688;BME280;24444;53.216;-6.664;2022-08-03T03:01:52;99757.28;;;10.62;100.00
38688;BME280;24444;53.216;-6.664;2022-08-03T03:04:21;99758.38;;;9.94;100.00
38688;BME280;24444;53.216;-6.664;2022-08-03T03:06:50;99754.53;;;10.16;100.00
38688;BME280;24444;53.216;-6.664;2022-08-03T03:09:18;99757.04;;;10.33;100.00
38688;BME280;24444;53.216;-6.664;2022-08-03T03:11:48;99753.22;;;10.56;100.00
38688;BME280;24444;53.216;-6.664;2022-08-03T03:14:17;99752.42;;;10.58;100.00
38688;BME280;24444;53.216;-6.664;2022-08-03T03:16:46;99755.26;;;10.61;100.00
38688;BME280;24444;53.216;-6.664;2022-08-03T03:19:15;99757.28;;;10.64;100.00
38688;BME280;24444;53.216;-6.664;2022-08-03T03:21:43;99756.01;;;10.29;100.00
38688;BME280;24444;53.216;-6.664;2022-08-03T03:24:12;99757.85;;;10.41;100.00
38688;BME280;24444;53.216;-6.664;2022-08-03T03:26:40;99759.65;;;10.05;100.00
38688;BME280;24444;53.216;-6.664;2022-08-03T03:29:08;99765.58;;;10.23;100.00
38688;BME280;24444;53.216;-6.664;2022-08-03T03:31:36;99765.76;;;10.36;100.00
38688;BME280;24444;53.216;-6.664;2022-08-03T03:34:04;99767.07;;;11.17;97.01
38688;BME280;24444;53.216;-6.664;2022-08-03T03:36:31;99767.20;;;10.87;98.34
38688;BME280;24444;53.216;-6.664;2022-08-03T03:38:59;99770.50;;;10.25;100.00
38688;BME280;24444;53.216;-6.664;2022-08-03T03:41:26;99769.21;;;11.02;98.95
38688;BME280;24444;53.216;-6.664;2022-08-03T03:43:54;99771.86;;;10.64;99.01
38688;BME280;24444;53.216;-6.664;2022-08-03T03:46:21;99776.04;;;10.05;100.00
38688;BME280;24444;53.216;-6.664;2022-08-03T03:48:49;99778.37;;;9.99;100.00
38688;BME280;24444;53.216;-6.664;2022-08-03T03:51:16;99783.10;;;9.53;100.00
38688;BME280;24444;53.216;-6.664;2022-08-03T03:54:02;99779.25;;;10.09;100.00
38688;BME280;24444;53.216;-6.664;2022-08-03T03:56:29;99783.91;;;10.63;100.00
38688;BME280;24444;53.216;-6.664;2022-08-03T03:58:56;99786.99;;;10.26;100.00
38688;BME280;24444;53.216;-6.664;2022-08-03T04:01:24;99789.76;;;10.92;100.00
38688;BME280;24444;53.216;-6.664;2022-08-03T04:03:51;99784.17;;;10.42;100.00
38688;BME280;24444;53.216;-6.664;2022-08-03T04:06:19;99790.76;;;9.07;100.00
38688;BME280;24444;53.216;-6.664;2022-08-03T04:08:46;99793.89;;;10.46;100.00
38688;BME280;24444;53.216;-6.664;2022-08-03T04:11:18;99797.84;;;10.57;100.00
38688;BME280;24444;53.216;-6.664;2022-08-03T04:13:50;99803.95;;;10.15;100.00
38688;BME280;24444;53.216;-6.664;2022-08-03T04:16:21;99809.36;;;9.98;100.00
38688;BME280;24444;53.216;-6.664;2022-08-03T04:18:54;99809.87;;;10.17;100.00
38688;BME280;24444;53.216;-6.664;2022-08-03T04:21:24;99813.38;;;8.95;100.00
38688;BME280;24444;53.216;-6.664;2022-08-03T04:23:55;99809.45;;;9.76;100.00
38688;BME280;24444;53.216;-6.664;2022-08-03T04:26:27;99813.31;;;9.30;100.00
38688;BME280;24444;53.216;-6.664;2022-08-03T04:28:58;99815.30;;;10.01;100.00
38688;BME280;24444;53.216;-6.664;2022-08-03T04:31:27;99818.43;;;9.99;100.00
38688;BME280;24444;53.216;-6.664;2022-08-03T04:33:56;99822.99;;;10.44;100.00
38688;BME280;24444;53.216;-6.664;2022-08-03T04:36:28;99819.44;;;10.20;100.00
38688;BME280;24444;53.216;-6.664;2022-08-03T04:39:01;99823.10;;;10.16;100.00
38688;BME280;24444;53.216;-6.664;2022-08-03T04:41:30;99826.07;;;10.68;100.00
38688;BME280;24444;53.216;-6.664;2022-08-03T04:43:59;99825.01;;;10.86;100.00
38688;BME280;24444;53.216;-6.664;2022-08-03T04:46:30;99822.14;;;10.16;100.00
38688;BME280;24444;53.216;-6.664;2022-08-03T04:48:58;99823.00;;;9.46;100.00
38688;BME280;24444;53.216;-6.664;2022-08-03T04:51:27;99825.79;;;9.71;100.00
38688;BME280;24444;53.216;-6.664;2022-08-03T04:53:55;99824.22;;;10.49;100.00
38688;BME280;24444;53.216;-6.664;2022-08-03T04:56:22;99826.23;;;9.81;100.00
38688;BME280;24444;53.216;-6.664;2022-08-03T04:58:50;99827.98;;;9.49;100.00
38688;BME280;24444;53.216;-6.664;2022-08-03T05:01:18;99834.28;;;9.61;100.00
38688;BME280;24444;53.216;-6.664;2022-08-03T05:03:45;99838.66;;;9.80;100.00
38688;BME280;24444;53.216;-6.664;2022-08-03T05:06:12;99839.93;;;9.71;100.00
38688;BME280;24444;53.216;-6.664;2022-08-03T05:08:40;99840.69;;;10.00;100.00
38688;BME280;24444;53.216;-6.664;2022-08-03T05:11:07;99841.95;;;9.75;100.00
38688;BME280;24444;53.216;-6.664;2022-08-03T05:13:35;99839.57;;;10.23;100.00
38688;BME280;24444;53.216;-6.664;2022-08-03T05:16:03;99843.81;;;10.38;100.00
38688;BME280;24444;53.216;-6.664;2022-08-03T05:18:30;99845.22;;;10.69;100.00
38688;BME280;24444;53.216;-6.664;2022-08-03T05:20:57;99843.73;;;10.13;100.00
38688;BME280;24444;53.216;-6.664;2022-08-03T05:23:25;99842.06;;;9.74;100.00
38688;BME280;24444;53.216;-6.664;2022-08-03T05:25:52;99843.64;;;10.21;100.00
38688;BME280;24444;53.216;-6.664;2022-08-03T05:28:20;99844.20;;;9.90;100.00
38688;BME280;24444;53.216;-6.664;2022-08-03T05:30:47;99850.16;;;9.94;100.00
38688;BME280;24444;53.216;-6.664;2022-08-03T05:33:15;99853.71;;;9.39;100.00
38688;BME280;24444;53.216;-6.664;2022-08-03T05:35:43;99857.82;;;9.99;100.00
38688;BME280;24444;53.216;-6.664;2022-08-03T05:38:10;99867.27;;;9.85;100.00
38688;BME280;24444;53.216;-6.664;2022-08-03T05:40:37;99868.31;;;9.51;100.00
38688;BME280;24444;53.216;-6.664;2022-08-03T05:43:05;99875.15;;;9.61;100.00
38688;BME280;24444;53.216;-6.664;2022-08-03T05:45:32;99879.73;;;9.33;100.00
38688;BME280;24444;53.216;-6.664;2022-08-03T05:48:00;99884.92;;;10.03;100.00
38688;BME280;24444;53.216;-6.664;2022-08-03T05:50:27;99883.40;;;9.16;100.00
38688;BME280;24444;53.216;-6.664;2022-08-03T05:52:55;99890.25;;;9.27;100.00
38688;BME280;24444;53.216;-6.664;2022-08-03T05:55:22;99885.78;;;9.16;100.00
38688;BME280;24444;53.216;-6.664;2022-08-03T05:57:50;99886.39;;;9.12;100.00
38688;BME280;24444;53.216;-6.664;2022-08-03T06:00:18;99886.54;;;8.93;100.00
38688;BME280;24444;53.216;-6.664;2022-08-03T06:02:45;99889.70;;;9.06;100.00
38688;BME280;24444;53.216;-6.664;2022-08-03T06:05:12;99886.79;;;9.19;100.00
38688;BME280;24444;53.216;-6.664;2022-08-03T06:07:40;99884.77;;;9.32;100.00
38688;BME280;24444;53.216;-6.664;2022-08-03T06:10:08;99890.16;;;9.43;100.00
38688;BME280;24444;53.216;-6.664;2022-08-03T06:12:36;99895.66;;;9.20;100.00
38688;BME280;24444;53.216;-6.664;2022-08-03T06:15:04;99898.24;;;9.38;100.00
38688;BME280;24444;53.216;-6.664;2022-08-03T06:17:31;99898.94;;;9.47;100.00
38688;BME280;24444;53.216;-6.664;2022-08-03T06:19:59;99905.84;;;9.37;100.00
38688;BME280;24444;53.216;-6.664;2022-08-03T06:22:27;99906.86;;;9.59;100.00
38688;BME280;24444;53.216;-6.664;2022-08-03T06:24:54;99909.29;;;9.34;100.00
38688;BME280;24444;53.216;-6.664;2022-08-03T06:27:22;99907.47;;;9.69;100.00
38688;BME280;24444;53.216;-6.664;2022-08-03T06:29:49;99914.33;;;9.37;100.00
38688;BME280;24444;53.216;-6.664;2022-08-03T06:32:17;99912.39;;;9.81;100.00
38688;BME280;24444;53.216;-6.664;2022-08-03T06:34:44;99915.74;;;9.77;100.00
38688;BME280;24444;53.216;-6.664;2022-08-03T06:37:12;99915.85;;;10.30;100.00
38688;BME280;24444;53.216;-6.664;2022-08-03T06:39:39;99916.89;;;10.28;100.00
38688;BME280;24444;53.216;-6.664;2022-08-03T06:42:07;99919.25;;;10.22;100.00
38688;BME280;24444;53.216;-6.664;2022-08-03T06:44:34;99921.46;;;10.04;100.00
38688;BME280;24444;53.216;-6.664;2022-08-03T06:47:02;99927.91;;;9.73;100.00
38688;BME280;24444;53.216;-6.664;2022-08-03T06:49:29;99931.03;;;9.96;100.00
38688;BME280;24444;53.216;-6.664;2022-08-03T06:51:57;99934.24;;;9.95;100.00
38688;BME280;24444;53.216;-6.664;2022-08-03T06:54:24;99929.47;;;10.21;100.00
38688;BME280;24444;53.216;-6.664;2022-08-03T06:56:53;99932.65;;;10.59;100.00
38688;BME280;24444;53.216;-6.664;2022-08-03T06:59:20;99931.54;;;9.86;99.96
38688;BME280;24444;53.216;-6.664;2022-08-03T07:01:48;99924.67;;;9.99;100.00
38688;BME280;24444;53.216;-6.664;2022-08-03T07:04:15;99923.64;;;10.17;100.00
38688;BME280;24444;53.216;-6.664;2022-08-03T07:06:43;99928.02;;;9.87;100.00
38688;BME280;24444;53.216;-6.664;2022-08-03T07:09:10;99923.03;;;9.79;100.00
38688;BME280;24444;53.216;-6.664;2022-08-03T07:11:38;99923.81;;;9.44;100.00
38688;BME280;24444;53.216;-6.664;2022-08-03T07:14:05;99922.25;;;9.61;100.00
38688;BME280;24444;53.216;-6.664;2022-08-03T07:16:33;99918.82;;;9.91;100.00
38688;BME280;24444;53.216;-6.664;2022-08-03T07:19:05;99914.19;;;9.91;100.00
38688;BME280;24444;53.216;-6.664;2022-08-03T07:21:33;99918.68;;;9.44;100.00
38688;BME280;24444;53.216;-6.664;2022-08-03T07:24:00;99923.84;;;9.88;100.00
38688;BME280;24444;53.216;-6.664;2022-08-03T07:26:28;99929.40;;;9.57;100.00
38688;BME280;24444;53.216;-6.664;2022-08-03T07:28:55;99926.98;;;10.49;100.00
38688;BME280;24444;53.216;-6.664;2022-08-03T07:31:23;99929.99;;;9.80;100.00
38688;BME280;24444;53.216;-6.664;2022-08-03T07:33:50;99935.22;;;9.72;100.00
38688;BME280;24444;53.216;-6.664;2022-08-03T07:36:18;99933.20;;;10.32;100.00
38688;BME280;24444;53.216;-6.664;2022-08-03T07:38:45;99936.68;;;10.49;100.00
38688;BME280;24444;53.216;-6.664;2022-08-03T07:41:13;99936.80;;;10.34;100.00
38688;BME280;24444;53.216;-6.664;2022-08-03T07:43:40;99944.63;;;10.29;100.00
38688;BME280;24444;53.216;-6.664;2022-08-03T07:46:08;99945.59;;;10.35;98.89
38688;BME280;24444;53.216;-6.664;2022-08-03T07:48:35;99946.95;;;10.11;98.40
38688;BME280;24444;53.216;-6.664;2022-08-03T07:51:03;99946.16;;;9.87;100.00
38688;BME280;24444;53.216;-6.664;2022-08-03T07:53:30;99943.06;;;10.64;98.17
38688;BME280;24444;53.216;-6.664;2022-08-03T07:55:58;99948.47;;;11.00;96.55
38688;BME280;24444;53.216;-6.664;2022-08-03T07:58:25;99945.36;;;11.33;95.94
38688;BME280;24444;53.216;-6.664;2022-08-03T08:00:53;99948.29;;;11.06;95.32
38688;BME280;24444;53.216;-6.664;2022-08-03T08:03:20;99957.32;;;11.25;94.09
38688;BME280;24444;53.216;-6.664;2022-08-03T08:05:48;99953.77;;;10.85;94.67
38688;BME280;24444;53.216;-6.664;2022-08-03T08:08:15;99950.03;;;10.47;96.76
38688;BME280;24444;53.216;-6.664;2022-08-03T08:10:43;99950.12;;;10.65;97.32
38688;BME280;24444;53.216;-6.664;2022-08-03T08:13:10;99958.88;;;11.27;96.38
38688;BME280;24444;53.216;-6.664;2022-08-03T08:15:38;99961.45;;;11.15;95.05
38688;BME280;24444;53.216;-6.664;2022-08-03T08:18:05;99956.21;;;11.52;94.96
38688;BME280;24444;53.216;-6.664;2022-08-03T08:20:34;99959.80;;;11.70;93.19
38688;BME280;24444;53.216;-6.664;2022-08-03T08:23:03;99960.00;;;12.17;92.79
38688;BME280;24444;53.216;-6.664;2022-08-03T08:25:31;99961.05;;;11.82;92.86
38688;BME280;24444;53.216;-6.664;2022-08-03T08:27:59;99958.71;;;12.31;92.79
38688;BME280;24444;53.216;-6.664;2022-08-03T08:30:27;99959.19;;;12.53;90.87
38688;BME280;24444;53.216;-6.664;2022-08-03T08:32:54;99960.30;;;11.75;90.70
38688;BME280;24444;53.216;-6.664;2022-08-03T08:35:22;99964.46;;;11.60;90.39
38688;BME280;24444;53.216;-6.664;2022-08-03T08:37:49;99968.88;;;11.82;93.06
38688;BME280;24444;53.216;-6.664;2022-08-03T08:40:20;99973.73;;;11.39;93.94
38688;BME280;24444;53.216;-6.664;2022-08-03T08:42:48;99972.69;;;11.10;95.79
38688;BME280;24444;53.216;-6.664;2022-08-03T08:45:16;99970.61;;;11.97;95.63
38688;BME280;24444;53.216;-6.664;2022-08-03T08:47:45;99967.80;;;11.33;94.65
38688;BME280;24444;53.216;-6.664;2022-08-03T08:50:12;99967.62;;;11.35;94.32
38688;BME280;24444;53.216;-6.664;2022-08-03T08:52:40;99965.75;;;11.51;92.01
38688;BME280;24444;53.216;-6.664;2022-08-03T08:55:13;99971.47;;;11.53;93.78
38688;BME280;24444;53.216;-6.664;2022-08-03T08:57:44;99969.82;;;11.69;93.14
38688;BME280;24444;53.216;-6.664;2022-08-03T09:00:14;99967.49;;;11.40;92.66
38688;BME280;24444;53.216;-6.664;2022-08-03T09:02:42;99973.41;;;11.40;94.50
38688;BME280;24444;53.216;-6.664;2022-08-03T09:05:10;99976.62;;;11.67;92.49
38688;BME280;24444;53.216;-6.664;2022-08-03T09:07:38;99979.86;;;12.23;92.49
38688;BME280;24444;53.216;-6.664;2022-08-03T09:10:07;99978.25;;;11.91;91.59
38688;BME280;24444;53.216;-6.664;2022-08-03T09:12:37;99978.49;;;11.15;93.00
38688;BME280;24444;53.216;-6.664;2022-08-03T09:15:22;99978.26;;;11.83;93.64
38688;BME280;24444;53.216;-6.664;2022-08-03T09:17:52;99975.46;;;11.57;93.01
38688;BME280;24444;53.216;-6.664;2022-08-03T09:20:22;99969.42;;;11.47;94.33
38688;BME280;24444;53.216;-6.664;2022-08-03T09:22:52;99975.52;;;11.64;94.00
38688;BME280;24444;53.216;-6.664;2022-08-03T09:25:27;99980.49;;;12.04;92.64
38688;BME280;24444;53.216;-6.664;2022-08-03T09:28:04;99979.10;;;12.03;92.12
38688;BME280;24444;53.216;-6.664;2022-08-03T09:30:32;99988.59;;;12.03;91.44
38688;BME280;24444;53.216;-6.664;2022-08-03T09:33:00;99988.85;;;11.70;90.82
38688;BME280;24444;53.216;-6.664;2022-08-03T09:35:27;99986.21;;;11.76;90.80
38688;BME280;24444;53.216;-6.664;2022-08-03T09:38:10;99978.31;;;11.87;91.76
38688;BME280;24444;53.216;-6.664;2022-08-03T09:40:38;99980.09;;;12.58;91.11
38688;BME280;24444;53.216;-6.664;2022-08-03T09:43:06;99990.29;;;12.64;90.01
38688;BME280;24444;53.216;-6.664;2022-08-03T09:45:34;99990.31;;;12.75;90.67
38688;BME280;24444;53.216;-6.664;2022-08-03T09:48:33;99986.31;;;12.00;89.23
38688;BME280;24444;53.216;-6.664;2022-08-03T09:51:05;99990.11;;;12.42;92.10
38688;BME280;24444;53.216;-6.664;2022-08-03T09:53:41;99985.89;;;12.26;91.47
38688;BME280;24444;53.216;-6.664;2022-08-03T09:56:08;99988.68;;;12.18;92.83
38688;BME280;24444;53.216;-6.664;2022-08-03T09:58:44;99990.43;;;12.14;91.24
38688;BME280;24444;53.216;-6.664;2022-08-03T10:01:12;99999.18;;;12.01;92.64
38688;BME280;24444;53.216;-6.664;2022-08-03T10:03:40;99999.07;;;11.92;93.88
38688;BME280;24444;53.216;-6.664;2022-08-03T10:06:17;100002.65;;;12.28;93.08
38688;BME280;24444;53.216;-6.664;2022-08-03T10:08:45;100002.90;;;12.10;95.80
38688;BME280;24444;53.216;-6.664;2022-08-03T10:11:28;100001.83;;;12.70;94.62
38688;BME280;24444;53.216;-6.664;2022-08-03T10:13:56;100001.22;;;13.08;93.45
38688;BME280;24444;53.216;-6.664;2022-08-03T10:16:23;100001.83;;;12.79;93.47
38688;BME280;24444;53.216;-6.664;2022-08-03T10:18:50;99998.91;;;12.73;92.67
38688;BME280;24444;53.216;-6.664;2022-08-03T10:21:18;99999.58;;;12.72;91.88
38688;BME280;24444;53.216;-6.664;2022-08-03T10:23:46;100001.97;;;13.40;91.61
38688;BME280;24444;53.216;-6.664;2022-08-03T10:26:18;100007.88;;;13.31;90.22
38688;BME280;24444;53.216;-6.664;2022-08-03T10:28:49;100010.90;;;12.79;91.31
38688;BME280;24444;53.216;-6.664;2022-08-03T10:31:20;100007.92;;;12.62;92.16
38688;BME280;24444;53.216;-6.664;2022-08-03T10:33:50;100009.45;;;12.50;90.98
38688;BME280;24444;53.216;-6.664;2022-08-03T10:36:19;100015.44;;;13.21;91.56
38688;BME280;24444;53.216;-6.664;2022-08-03T10:38:51;100009.94;;;13.04;89.76
38688;BME280;24444;53.216;-6.664;2022-08-03T10:41:19;100013.09;;;12.79;90.55
38688;BME280;24444;53.216;-6.664;2022-08-03T10:43:52;100013.05;;;12.89;91.76
38688;BME280;24444;53.216;-6.664;2022-08-03T10:46:22;100018.65;;;12.84;92.68
38688;BME280;24444;53.216;-6.664;2022-08-03T10:48:49;100019.04;;;12.46;93.63
38688;BME280;24444;53.216;-6.664;2022-08-03T10:51:18;100020.85;;;12.96;94.36
38688;BME280;24444;53.216;-6.664;2022-08-03T10:53:45;100019.48;;;12.77;93.37
38688;BME280;24444;53.216;-6.664;2022-08-03T10:56:38;100022.72;;;12.59;95.88
38688;BME280;24444;53.216;-6.664;2022-08-03T10:59:05;100024.32;;;13.03;96.35
38688;BME280;24444;53.216;-6.664;2022-08-03T11:01:55;100025.23;;;12.51;95.68
38688;BME280;24444;53.216;-6.664;2022-08-03T11:04:23;100020.47;;;14.04;96.30
38688;BME280;24444;53.216;-6.664;2022-08-03T11:07:20;100021.94;;;14.00;92.43
38688;BME280;24444;53.216;-6.664;2022-08-03T11:09:49;100019.09;;;14.15;94.51
38688;BME280;24444;53.216;-6.664;2022-08-03T11:12:21;100017.93;;;15.07;90.38
38688;BME280;24444;53.216;-6.664;2022-08-03T11:14:49;100010.57;;;15.96;84.38
38688;BME280;24444;53.216;-6.664;2022-08-03T11:17:18;100009.53;;;16.48;80.93
38688;BME280;24444;53.216;-6.664;2022-08-03T11:19:47;100012.44;;;15.88;75.72
38688;BME280;24444;53.216;-6.664;2022-08-03T11:22:16;100013.60;;;15.87;76.67
38688;BME280;24444;53.216;-6.664;2022-08-03T11:25:00;100013.97;;;16.22;79.85
38688;BME280;24444;53.216;-6.664;2022-08-03T11:27:29;100014.42;;;17.60;74.65
38688;BME280;24444;53.216;-6.664;2022-08-03T11:30:00;100012.54;;;16.90;74.05
38688;BME280;24444;53.216;-6.664;2022-08-03T11:32:59;100019.63;;;14.88;76.54
38688;BME280;24444;53.216;-6.664;2022-08-03T11:35:28;100021.62;;;15.45;83.00
38688;BME280;24444;53.216;-6.664;2022-08-03T11:38:11;100020.70;;;14.61;79.58
38688;BME280;24444;53.216;-6.664;2022-08-03T11:40:42;100024.09;;;14.54;84.95
38688;BME280;24444;53.216;-6.664;2022-08-03T11:43:42;100023.61;;;14.54;84.69
38688;BME280;24444;53.216;-6.664;2022-08-03T11:46:11;100027.29;;;14.43;86.86
38688;BME280;24444;53.216;-6.664;2022-08-03T11:48:41;100030.56;;;14.68;84.96
38688;BME280;24444;53.216;-6.664;2022-08-03T11:51:19;100036.38;;;15.57;84.29
38688;BME280;24444;53.216;-6.664;2022-08-03T11:53:51;100046.70;;;15.06;87.55
38688;BME280;24444;53.216;-6.664;2022-08-03T11:56:19;100052.64;;;14.85;94.07
38688;BME280;24444;53.216;-6.664;2022-08-03T11:58:47;100059.08;;;15.00;97.22
38688;BME280;24444;53.216;-6.664;2022-08-03T12:01:14;100063.34;;;13.92;100.00
38688;BME280;24444;53.216;-6.664;2022-08-03T12:03:42;100067.84;;;14.05;100.00
38688;BME280;24444;53.216;-6.664;2022-08-03T12:06:10;100068.00;;;13.49;100.00
38688;BME280;24444;53.216;-6.664;2022-08-03T12:08:38;100061.87;;;13.36;100.00
38688;BME280;24444;53.216;-6.664;2022-08-03T12:11:07;100064.26;;;14.51;100.00
38688;BME280;24444;53.216;-6.664;2022-08-03T12:13:37;100070.06;;;15.80;99.64
38688;BME280;24444;53.216;-6.664;2022-08-03T12:16:05;100069.54;;;14.63;100.00
38688;BME280;24444;53.216;-6.664;2022-08-03T12:18:32;100068.99;;;14.76;98.51
38688;BME280;24444;53.216;-6.664;2022-08-03T12:21:05;100068.23;;;14.61;100.00
38688;BME280;24444;53.216;-6.664;2022-08-03T12:23:32;100066.70;;;15.03;95.71
38688;BME280;24444;53.216;-6.664;2022-08-03T12:26:01;100062.16;;;14.57;96.29
38688;BME280;24444;53.216;-6.664;2022-08-03T12:28:30;100061.25;;;15.15;94.88
38688;BME280;24444;53.216;-6.664;2022-08-03T12:31:02;100068.51;;;14.67;94.97
38688;BME280;24444;53.216;-6.664;2022-08-03T12:33:30;100072.05;;;14.90;95.21
38688;BME280;24444;53.216;-6.664;2022-08-03T12:36:06;100067.14;;;15.21;90.91
38688;BME280;24444;53.216;-6.664;2022-08-03T12:38:36;100061.74;;;14.82;95.08
38688;BME280;24444;53.216;-6.664;2022-08-03T12:41:05;100064.66;;;14.72;92.39
38688;BME280;24444;53.216;-6.664;2022-08-03T12:43:32;100064.58;;;14.07;89.86
38688;BME280;24444;53.216;-6.664;2022-08-03T12:46:09;100067.59;;;15.10;91.49
38688;BME280;24444;53.216;-6.664;2022-08-03T12:48:53;100062.49;;;14.80;93.65
38688;BME280;24444;53.216;-6.664;2022-08-03T12:51:20;100064.87;;;15.42;94.54
38688;BME280;24444;53.216;-6.664;2022-08-03T12:53:51;100064.70;;;15.28;92.85
38688;BME280;24444;53.216;-6.664;2022-08-03T12:56:18;100073.90;;;16.13;91.35
38688;BME280;24444;53.216;-6.664;2022-08-03T12:58:46;100087.47;;;15.56;90.18